Time;durP1;ratioP1;P1;durP2;ratioP2;P2;SDS_P1;SDS_P2;PMS_P1;PMS_P2;Temp;Humidity;BMP_temperature;BMP_pressure;BME280_temperature;BME280_humidity;BME280_pressure;Samples;Min_cycle;Max_cycle;Signal;HPM_P1;HPM_P2
2023/03/17 00:01:23;;;;;;;;;;;;;;;;;;5155555;27;1092;-46
2023/03/17 00:03:50;;;;;;;;;;;;;;;;;;5155621;27;1477;-40
2023/03/17 00:06:19;;;;;;;;;;;;;;;;;;5155589;27;1188;-41
2023/03/17 00:08:46;;;;;;;;;;;;;;;;;;5155464;27;1072;-40
2023/03/17 00:11:13;;;;;;;;;;;;;;;;;;5155726;27;1118;-41
2023/03/17 00:13:40;;;;;;;;;;;;;;;;;;5155441;27;1124;-43
2023/03/17 00:16:07;;;;;;;;;;;;;;;;;;5155249;27;1971;-40
2023/03/17 00:18:37;;;;;;;;;;;;;;;;;;5155464;27;1141;-46
2023/03/17 00:21:04;;;;;;;;;;;;;;;;;;5137061;27;1153;-40
2023/03/17 00:23:31;;;;;;;;;;;;;;;;;;5136365;27;2312;-41
2023/03/17 00:25:59;;;;;;;;;;;;;;;;;;5155039;27;1066;-42
2023/03/17 00:28:26;;;;;;;;;;;;;;;;;;5136829;27;1363;-44
2023/03/17 00:30:53;;;;;;;;;;;;;;;;;;5155093;27;1181;-40
2023/03/17 00:33:21;;;;;;;;;;;;;;;;;;5155172;27;1113;-41
2023/03/17 00:35:48;;;;;;;;;;;;;;;;;;5154793;27;1911;-39
2023/03/17 00:38:15;;;;;;;;;;;;;;;;;;5154978;27;1346;-40
2023/03/17 00:40:43;;;;;;;;;;;;;;;;;;5155170;27;931;-40
2023/03/17 00:43:10;;;;;;;;;;;;;;;;;;5154810;27;1189;-47
2023/03/17 00:45:37;;;;;;;;;;;;;;;;;;5136325;27;1654;-39
2023/03/17 00:48:04;;;;;;;;;;;;;;;;;;5154892;27;1331;-43
2023/03/17 00:50:31;;;;;;;;;;;;;;;;;;5136046;27;2634;-40
2023/03/17 00:53:01;;;;;;;;;;;;;;;;;;5154766;27;1141;-40
2023/03/17 00:55:28;;;;;;;;;;;;;;;;;;5132678;27;1919;-41
2023/03/17 00:57:55;;;;;;;;;;;;;;;;;;5115432;27;1389;-40
2023/03/17 01:00:23;;;;;;;;;;;;;;;;;;5133822;27;1261;-40
2023/03/17 01:02:50;;;;;;;;;;;;;;;;;;5133803;27;1460;-41
2023/03/17 01:05:18;;;;;;;;;;;;;;;;;;5133850;27;1226;-40
2023/03/17 01:07:47;;;;;;;;;;;;;;;;;;5133897;27;1340;-46
2023/03/17 01:10:15;;;;;;;;;;;;;;;;;;5153068;27;1125;-41
2023/03/17 01:12:42;;;;;;;;;;;;;;;;;;5154195;27;1075;-40
2023/03/17 01:15:09;;;;;;;;;;;;;;;;;;5154151;27;1982;-40
2023/03/17 01:17:38;;;;;;;;;;;;;;;;;;5135713;27;1529;-40
2023/03/17 01:20:05;;;;;;;;;;;;;;;;;;5135528;27;1537;-41
2023/03/17 01:22:32;;;;;;;;;;;;;;;;;;5154012;27;1039;-40
2023/03/17 01:25:00;;;;;;;;;;;;;;;;;;5135387;27;2286;-40
2023/03/17 01:27:27;;;;;;;;;;;;;;;;;;5135507;27;1132;-40
2023/03/17 01:29:54;;;;;;;;;;;;;;;;;;5153938;27;964;-41
2023/03/17 01:32:21;;;;;;;;;;;;;;;;;;5153923;27;1277;-39
2023/03/17 01:34:50;;;;;;;;;;;;;;;;;;5135434;27;1911;-40
2023/03/17 01:37:16;;;;;;;;;;;;;;;;;;5152836;27;1307;-41
2023/03/17 01:39:44;;;;;;;;;;;;;;;;;;5153908;27;1164;-39
2023/03/17 01:42:12;;;;;;;;;;;;;;;;;;5153628;27;1310;-40
2023/03/17 01:44:40;;;;;;;;;;;;;;;;;;5153693;27;999;-44
2023/03/17 01:47:09;;;;;;;;;;;;;;;;;;5153588;27;1031;-41
2023/03/17 01:49:36;;;;;;;;;;;;;;;;;;5153395;27;1081;-40
2023/03/17 01:52:04;;;;;;;;;;;;;;;;;;5153636;27;1089;-40
2023/03/17 01:54:31;;;;;;;;;;;;;;;;;;5134774;27;2193;-40
2023/03/17 01:56:59;;;;;;;;;;;;;;;;;;5137595;27;1396;-40
2023/03/17 01:59:26;;;;;;;;;;;;;;;;;;5114016;27;2390;-41
2023/03/17 02:01:53;;;;;;;;;;;;;;;;;;5114345;27;1273;-40
2023/03/17 02:04:20;;;;;;;;;;;;;;;;;;5114255;27;1258;-40
2023/03/17 02:06:48;;;;;;;;;;;;;;;;;;5114275;27;1097;-40
2023/03/17 02:09:25;;;;;;;;;;;;;;;;;;5132489;27;963;-39
2023/03/17 02:11:52;;;;;;;;;;;;;;;;;;5114210;27;1179;-40
2023/03/17 02:14:19;;;;;;;;;;;;;;;;;;5114154;27;1982;-40
2023/03/17 02:16:47;;;;;;;;;;;;;;;;;;5113738;27;1297;-40
2023/03/17 02:19:14;;;;;;;;;;;;;;;;;;5132467;27;979;-40
2023/03/17 02:21:41;;;;;;;;;;;;;;;;;;5113854;27;1325;-42
2023/03/17 02:24:09;;;;;;;;;;;;;;;;;;5113833;27;1218;-40
2023/03/17 02:26:37;;;;;;;;;;;;;;;;;;5113946;28;2290;-39
2023/03/17 02:29:05;;;;;;;;;;;;;;;;;;5132346;27;972;-40
2023/03/17 02:31:32;;;;;;;;;;;;;;;;;;5132322;27;1066;-41
2023/03/17 02:33:59;;;;;;;;;;;;;;;;;;5132373;27;1014;-42
2023/03/17 02:36:26;;;;;;;;;;;;;;;;;;5132214;28;1913;-40
2023/03/17 02:38:53;;;;;;;;;;;;;;;;;;5113935;28;1084;-43
2023/03/17 02:41:20;;;;;;;;;;;;;;;;;;5140408;27;1067;-40
2023/03/17 02:43:47;;;;;;;;;;;;;;;;;;5152690;27;1038;-41
2023/03/17 02:46:15;;;;;;;;;;;;;;;;;;5152769;27;909;-42
2023/03/17 02:48:42;;;;;;;;;;;;;;;;;;5156523;27;946;-40
2023/03/17 02:51:09;;;;;;;;;;;;;;;;;;5157098;27;947;-39
2023/03/17 02:53:36;;;;;;;;;;;;;;;;;;5157154;27;1004;-43
2023/03/17 02:56:04;;;;;;;;;;;;;;;;;;5148979;27;1915;-40
2023/03/17 02:58:31;;;;;;;;;;;;;;;;;;5149984;27;1720;-40
2023/03/17 03:00:58;;;;;;;;;;;;;;;;;;5156994;27;1234;-40
2023/03/17 03:03:25;;;;;;;;;;;;;;;;;;5156918;27;982;-40
2023/03/17 03:05:52;;;;;;;;;;;;;;;;;;5156959;27;1168;-39
2023/03/17 03:08:19;;;;;;;;;;;;;;;;;;5156747;27;1075;-38
2023/03/17 03:10:46;;;;;;;;;;;;;;;;;;5156766;27;1020;-40
2023/03/17 03:13:16;;;;;;;;;;;;;;;;;;5156606;27;1329;-40
2023/03/17 03:15:43;;;;;;;;;;;;;;;;;;5156631;27;1933;-41
2023/03/17 03:18:11;;;;;;;;;;;;;;;;;;5156672;27;1151;-40
2023/03/17 03:20:38;;;;;;;;;;;;;;;;;;5156566;27;926;-40
2023/03/17 03:23:05;;;;;;;;;;;;;;;;;;5156445;27;1239;-40
2023/03/17 03:25:32;;;;;;;;;;;;;;;;;;5156276;27;1018;-40
2023/03/17 03:27:59;;;;;;;;;;;;;;;;;;5156409;27;995;-40
2023/03/17 03:30:26;;;;;;;;;;;;;;;;;;5156664;27;1165;-44
2023/03/17 03:32:54;;;;;;;;;;;;;;;;;;5156436;27;1055;-39
2023/03/17 03:35:21;;;;;;;;;;;;;;;;;;5153578;27;1935;-40
2023/03/17 03:37:48;;;;;;;;;;;;;;;;;;5135286;27;1283;-45
2023/03/17 03:40:15;;;;;;;;;;;;;;;;;;5135200;27;922;-39
2023/03/17 03:42:50;;;;;;;;;;;;;;;;;;5135363;27;998;-40
2023/03/17 03:45:17;;;;;;;;;;;;;;;;;;5135315;27;1002;-40
2023/03/17 03:47:44;;;;;;;;;;;;;;;;;;5135304;27;970;-43
2023/03/17 03:50:12;;;;;;;;;;;;;;;;;;5135216;27;1055;-45
2023/03/17 03:52:39;;;;;;;;;;;;;;;;;;5135047;27;1195;-40
2023/03/17 03:55:06;;;;;;;;;;;;;;;;;;5131401;27;2380;-40
2023/03/17 03:57:33;;;;;;;;;;;;;;;;;;5135008;27;976;-43
2023/03/17 04:00:04;;;;;;;;;;;;;;;;;;5134307;27;1060;-39
2023/03/17 04:02:43;;;;;;;;;;;;;;;;;;5134938;27;1145;-40
2023/03/17 04:05:31;;;;;;;;;;;;;;;;;;5134987;27;1021;-39
2023/03/17 04:08:31;;;;;;;;;;;;;;;;;;5135009;27;1088;-44
2023/03/17 04:11:26;;;;;;;;;;;;;;;;;;5134816;27;922;-40
2023/03/17 04:13:56;;;;;;;;;;;;;;;;;;5134987;27;1229;-40
2023/03/17 04:16:33;;;;;;;;;;;;;;;;;;5135030;27;1920;-39
2023/03/17 04:19:32;;;;;;;;;;;;;;;;;;5134709;27;1011;-50
2023/03/17 04:22:05;;;;;;;;;;;;;;;;;;5134617;27;1004;-43
2023/03/17 04:24:53;;;;;;;;;;;;;;;;;;5134699;27;986;-40
2023/03/17 04:27:26;;;;;;;;;;;;;;;;;;5133926;27;1999;-41
2023/03/17 04:30:05;;;;;;;;;;;;;;;;;;5134477;27;1058;-40
2023/03/17 04:32:45;;;;;;;;;;;;;;;;;;5134508;27;1193;-40
2023/03/17 04:35:18;;;;;;;;;;;;;;;;;;5134331;27;1909;-40
2023/03/17 04:37:45;;;;;;;;;;;;;;;;;;5132929;27;1255;-44
2023/03/17 04:40:14;;;;;;;;;;;;;;;;;;5134309;27;1316;-40
2023/03/17 04:42:44;;;;;;;;;;;;;;;;;;5134242;27;961;-40
2023/03/17 04:45:15;;;;;;;;;;;;;;;;;;5134319;27;1169;-40
2023/03/17 04:47:44;;;;;;;;;;;;;;;;;;5134174;27;1402;-40
2023/03/17 04:50:14;;;;;;;;;;;;;;;;;;5134074;27;1109;-45
2023/03/17 04:52:41;;;;;;;;;;;;;;;;;;5134215;27;908;-40
2023/03/17 04:55:08;;;;;;;;;;;;;;;;;;5133963;27;1982;-39
2023/03/17 04:57:35;;;;;;;;;;;;;;;;;;5133904;27;1182;-40
2023/03/17 05:00:02;;;;;;;;;;;;;;;;;;5134114;27;986;-40
2023/03/17 05:02:29;;;;;;;;;;;;;;;;;;5133966;27;1178;-46
2023/03/17 05:04:56;;;;;;;;;;;;;;;;;;5133834;27;911;-59
2023/03/17 05:07:23;;;;;;;;;;;;;;;;;;5133842;27;957;-40
2023/03/17 05:09:50;;;;;;;;;;;;;;;;;;5133420;27;1059;-40
2023/03/17 05:12:17;;;;;;;;;;;;;;;;;;5132999;27;1070;-41
2023/03/17 05:14:44;;;;;;;;;;;;;;;;;;5133687;27;1310;-40
2023/03/17 05:17:11;;;;;;;;;;;;;;;;;;5133456;27;1915;-40
2023/03/17 05:19:38;;;;;;;;;;;;;;;;;;5133428;27;1124;-39
2023/03/17 05:22:06;;;;;;;;;;;;;;;;;;5133280;27;1294;-40
2023/03/17 05:24:32;;;;;;;;;;;;;;;;;;5133601;27;1112;-39
2023/03/17 05:27:00;;;;;;;;;;;;;;;;;;5133400;27;1058;-39
2023/03/17 05:29:27;;;;;;;;;;;;;;;;;;5133413;27;1053;-40
2023/03/17 05:31:57;;;;;;;;;;;;;;;;;;5133347;27;1165;-39
2023/03/17 05:34:24;;;;;;;;;;;;;;;;;;5133385;27;1024;-40
2023/03/17 05:36:51;;;;;;;;;;;;;;;;;;5132755;27;1906;-39
2023/03/17 05:39:18;;;;;;;;;;;;;;;;;;5132770;27;1456;-39
2023/03/17 05:41:46;;;;;;;;;;;;;;;;;;5133122;27;1087;-44
2023/03/17 05:44:13;;;;;;;;;;;;;;;;;;5133143;27;1111;-40
2023/03/17 05:46:40;;;;;;;;;;;;;;;;;;5133194;27;1036;-40
2023/03/17 05:49:07;;;;;;;;;;;;;;;;;;5132922;27;936;-40
2023/03/17 05:51:34;;;;;;;;;;;;;;;;;;5132978;27;1048;-40
2023/03/17 05:54:02;;;;;;;;;;;;;;;;;;5133066;27;987;-41
2023/03/17 05:56:32;;;;;;;;;;;;;;;;;;5132609;27;1918;-40
2023/03/17 05:58:59;;;;;;;;;;;;;;;;;;5132882;27;1485;-41
2023/03/17 06:01:26;;;;;;;;;;;;;;;;;;5132580;27;1085;-40
2023/03/17 06:03:53;;;;;;;;;;;;;;;;;;5132701;27;936;-41
2023/03/17 06:06:20;;;;;;;;;;;;;;;;;;5132692;27;950;-41
2023/03/17 06:08:47;;;;;;;;;;;;;;;;;;5132575;27;1525;-40
2023/03/17 06:11:14;;;;;;;;;;;;;;;;;;5096808;27;9489;-40
2023/03/17 06:14:39;;;;;;;;;;;;;;;;;;5192309;27;1254;-40
2023/03/17 06:17:07;;;;;;;;;;;;;;;;;;5180257;27;9491;-40
2023/03/17 06:19:34;;;;;;;;;;;;;;;;;;5171506;27;1240;-39
2023/03/17 06:22:01;;;;;;;;;;;;;;;;;;5171122;27;1036;-40
2023/03/17 06:24:28;;;;;;;;;;;;;;;;;;5171012;27;914;-40
2023/03/17 06:26:55;;;;;;;;;;;;;;;;;;5170852;27;1003;-41
2023/03/17 06:29:23;;;;;;;;;;;;;;;;;;5170994;27;1049;-41
2023/03/17 06:31:51;;;;;;;;;;;;;;;;;;5170982;27;1055;-39
2023/03/17 06:34:20;;;;;;;;;;;;;;;;;;5170781;27;1907;-40
2023/03/17 06:36:48;;;;;;;;;;;;;;;;;;5170810;27;1058;-40
2023/03/17 06:39:15;;;;;;;;;;;;;;;;;;5170419;27;911;-41
2023/03/17 06:41:42;;;;;;;;;;;;;;;;;;5170346;27;1138;-40
2023/03/17 06:44:09;;;;;;;;;;;;;;;;;;5170619;27;1170;-40
2023/03/17 06:46:37;;;;;;;;;;;;;;;;;;5170776;27;943;-40
2023/03/17 06:49:04;;;;;;;;;;;;;;;;;;5170504;27;1084;-39
2023/03/17 06:51:32;;;;;;;;;;;;;;;;;;5169946;27;1083;-40
2023/03/17 06:53:59;;;;;;;;;;;;;;;;;;5170229;27;1981;-50
2023/03/17 06:56:26;;;;;;;;;;;;;;;;;;5169364;27;1431;-40
2023/03/17 06:58:56;;;;;;;;;;;;;;;;;;5169627;27;1078;-40
2023/03/17 07:01:26;;;;;;;;;;;;;;;;;;5170216;27;1027;-40
2023/03/17 07:03:54;;;;;;;;;;;;;;;;;;5170423;27;979;-40
2023/03/17 07:06:24;;;;;;;;;;;;;;;;;;5170170;27;966;-40
2023/03/17 07:08:51;;;;;;;;;;;;;;;;;;5170150;27;926;-41
2023/03/17 07:11:18;;;;;;;;;;;;;;;;;;5170150;27;1088;-41
2023/03/17 07:13:45;;;;;;;;;;;;;;;;;;5169580;27;1921;-40
2023/03/17 07:16:14;;;;;;;;;;;;;;;;;;5165387;27;970;-40
2023/03/17 07:18:42;;;;;;;;;;;;;;;;;;5149028;27;1086;-41
2023/03/17 07:21:09;;;;;;;;;;;;;;;;;;5149342;27;1210;-40
2023/03/17 07:23:36;;;;;;;;;;;;;;;;;;5149044;27;1077;-39
2023/03/17 07:26:03;;;;;;;;;;;;;;;;;;5135064;27;1464;-41
2023/03/17 07:28:31;;;;;;;;;;;;;;;;;;5135259;27;1258;-40
2023/03/17 07:30:59;;;;;;;;;;;;;;;;;;5134935;27;1114;-40
2023/03/17 07:33:26;;;;;;;;;;;;;;;;;;5134850;27;1978;-41
2023/03/17 07:35:53;;;;;;;;;;;;;;;;;;5134752;27;1361;-40
2023/03/17 07:38:21;;;;;;;;;;;;;;;;;;5135056;27;1140;-41
2023/03/17 07:40:48;;;;;;;;;;;;;;;;;;5134882;27;1083;-40
2023/03/17 07:43:18;;;;;;;;;;;;;;;;;;5134720;27;1106;-41
2023/03/17 07:45:45;;;;;;;;;;;;;;;;;;5134806;27;1146;-41
2023/03/17 07:48:13;;;;;;;;;;;;;;;;;;5134700;27;1410;-41
2023/03/17 07:50:41;;;;;;;;;;;;;;;;;;5134824;27;1070;-42
2023/03/17 07:53:08;;;;;;;;;;;;;;;;;;5134633;27;1961;-42
2023/03/17 07:55:37;;;;;;;;;;;;;;;;;;5134395;27;1286;-40
2023/03/17 07:58:05;;;;;;;;;;;;;;;;;;5134669;27;1098;-40
2023/03/17 08:00:33;;;;;;;;;;;;;;;;;;5134239;27;1128;-41
2023/03/17 08:03:01;;;;;;;;;;;;;;;;;;5134456;27;1052;-41
2023/03/17 08:05:36;;;;;;;;;;;;;;;;;;5134334;27;1307;-40
2023/03/17 08:08:05;;;;;;;;;;;;;;;;;;5134364;27;963;-41
2023/03/17 08:10:32;;;;;;;;;;;;;;;;;;5134259;27;1016;-40
2023/03/17 08:13:00;;;;;;;;;;;;;;;;;;5133963;27;1916;-40
2023/03/17 08:15:29;;;;;;;;;;;;;;;;;;5134170;27;1007;-41
2023/03/17 08:17:56;;;;;;;;;;;;;;;;;;5134238;27;1068;-41
2023/03/17 08:20:24;;;;;;;;;;;;;;;;;;5134274;27;1387;-41
2023/03/17 08:22:51;;;;;;;;;;;;;;;;;;5134052;27;918;-40
2023/03/17 08:25:18;;;;;;;;;;;;;;;;;;5134017;27;999;-41
2023/03/17 08:27:46;;;;;;;;;;;;;;;;;;5134100;27;1364;-41
2023/03/17 08:30:15;;;;;;;;;;;;;;;;;;5134281;27;972;-41
2023/03/17 08:32:42;;;;;;;;;;;;;;;;;;5134053;27;995;-42
2023/03/17 08:35:11;;;;;;;;;;;;;;;;;;5133779;27;1905;-42
2023/03/17 08:37:38;;;;;;;;;;;;;;;;;;5132782;27;1043;-41
2023/03/17 08:40:06;;;;;;;;;;;;;;;;;;5133655;27;894;-41
2023/03/17 08:42:33;;;;;;;;;;;;;;;;;;5133837;27;988;-41
2023/03/17 08:45:03;;;;;;;;;;;;;;;;;;5133506;27;952;-41
2023/03/17 08:47:30;;;;;;;;;;;;;;;;;;5133654;27;1239;-46
2023/03/17 08:49:59;;;;;;;;;;;;;;;;;;5115155;27;1016;-42
2023/03/17 08:52:27;;;;;;;;;;;;;;;;;;5133530;27;1142;-43
2023/03/17 08:54:54;;;;;;;;;;;;;;;;;;5133318;27;1982;-40
2023/03/17 08:57:22;;;;;;;;;;;;;;;;;;5152658;27;1313;-42
2023/03/17 08:59:49;;;;;;;;;;;;;;;;;;5154051;27;1181;-41
2023/03/17 09:02:16;;;;;;;;;;;;;;;;;;5154044;27;1165;-41
2023/03/17 09:04:44;;;;;;;;;;;;;;;;;;5154255;27;1025;-41
2023/03/17 09:07:11;;;;;;;;;;;;;;;;;;5153698;27;1209;-40
2023/03/17 09:09:39;;;;;;;;;;;;;;;;;;5153896;27;1144;-43
2023/03/17 09:12:07;;;;;;;;;;;;;;;;;;5153704;27;1299;-41
2023/03/17 09:14:34;;;;;;;;;;;;;;;;;;5153692;27;1918;-40
2023/03/17 09:17:10;;;;;;;;;;;;;;;;;;5153703;27;962;-41
2023/03/17 09:19:37;;;;;;;;;;;;;;;;;;5153504;27;1104;-41
2023/03/17 09:22:05;;;;;;;;;;;;;;;;;;5153560;27;1115;-41
2023/03/17 09:24:34;;;;;;;;;;;;;;;;;;5153504;27;1212;-41
2023/03/17 09:27:01;;;;;;;;;;;;;;;;;;5153607;27;1006;-42
2023/03/17 09:29:29;;;;;;;;;;;;;;;;;;5153508;27;1068;-42
2023/03/17 09:31:56;;;;;;;;;;;;;;;;;;5153500;27;986;-42
2023/03/17 09:34:24;;;;;;;;;;;;;;;;;;5152959;27;1976;-41
2023/03/17 09:36:54;;;;;;;;;;;;;;;;;;5153245;27;1101;-42
2023/03/17 09:39:22;;;;;;;;;;;;;;;;;;5153302;27;1047;-41
2023/03/17 09:41:57;;;;;;;;;;;;;;;;;;5153468;27;990;-43
2023/03/17 09:44:33;;;;;;;;;;;;;;;;;;5153270;27;971;-40
2023/03/17 09:47:11;;;;;;;;;;;;;;;;;;5152981;27;903;-42
2023/03/17 09:49:57;;;;;;;;;;;;;;;;;;5153129;27;1165;-43
2023/03/17 09:52:27;;;;;;;;;;;;;;;;;;5153121;27;1073;-43
2023/03/17 09:54:54;;;;;;;;;;;;;;;;;;5153039;27;1968;-43
2023/03/17 09:57:29;;;;;;;;;;;;;;;;;;5133733;27;1336;-43
2023/03/17 10:00:05;;;;;;;;;;;;;;;;;;5132316;27;1171;-43
2023/03/17 10:02:34;;;;;;;;;;;;;;;;;;5132274;27;979;-46
2023/03/17 10:05:20;;;;;;;;;;;;;;;;;;5132229;27;1314;-43
2023/03/17 10:08:06;;;;;;;;;;;;;;;;;;5132158;27;1020;-44
2023/03/17 10:10:58;;;;;;;;;;;;;;;;;;5132408;27;861;-42
2023/03/17 10:13:44;;;;;;;;;;;;;;;;;;5131914;28;1903;-43
2023/03/17 10:16:16;;;;;;;;;;;;;;;;;;5131942;28;925;-44
2023/03/17 10:18:48;;;;;;;;;;;;;;;;;;5132005;28;1009;-44
2023/03/17 10:21:25;;;;;;;;;;;;;;;;;;5132117;28;1428;-44
2023/03/17 10:23:54;;;;;;;;;;;;;;;;;;5132195;28;1078;-45
2023/03/17 10:26:47;;;;;;;;;;;;;;;;;;5131972;28;990;-43
2023/03/17 10:29:21;;;;;;;;;;;;;;;;;;5130127;28;1858;-44
2023/03/17 10:31:49;;;;;;;;;;;;;;;;;;5132009;28;1018;-44
2023/03/17 10:34:18;;;;;;;;;;;;;;;;;;5131894;28;1969;-43
2023/03/17 10:36:48;;;;;;;;;;;;;;;;;;5131808;28;1011;-45
2023/03/17 10:39:20;;;;;;;;;;;;;;;;;;5131779;28;1055;-43
2023/03/17 10:41:55;;;;;;;;;;;;;;;;;;5131890;28;1182;-43
2023/03/17 10:44:38;;;;;;;;;;;;;;;;;;5132125;28;1201;-43
2023/03/17 10:47:18;;;;;;;;;;;;;;;;;;5131874;28;1075;-43
2023/03/17 10:49:45;;;;;;;;;;;;;;;;;;5131589;28;1158;-44
2023/03/17 10:52:19;;;;;;;;;;;;;;;;;;5131703;28;1308;-43
2023/03/17 10:54:48;;;;;;;;;;;;;;;;;;5131628;28;1993;-44
2023/03/17 10:57:15;;;;;;;;;;;;;;;;;;5131661;28;1329;-44
2023/03/17 10:59:47;;;;;;;;;;;;;;;;;;5132218;27;1432;-43
2023/03/17 11:02:19;;;;;;;;;;;;;;;;;;5135547;27;1432;-45
2023/03/17 11:04:47;;;;;;;;;;;;;;;;;;5135448;27;1111;-43
2023/03/17 11:07:16;;;;;;;;;;;;;;;;;;5135604;27;1062;-43
2023/03/17 11:09:47;;;;;;;;;;;;;;;;;;5135516;27;1230;-43
2023/03/17 11:12:21;;;;;;;;;;;;;;;;;;5135250;27;1396;-43
2023/03/17 11:14:49;;;;;;;;;;;;;;;;;;5135161;27;1980;-43
2023/03/17 11:17:35;;;;;;;;;;;;;;;;;;5135168;27;1071;-43
2023/03/17 11:20:20;;;;;;;;;;;;;;;;;;5135084;27;1116;-43
2023/03/17 11:23:09;;;;;;;;;;;;;;;;;;5134996;27;1076;-43
2023/03/17 11:25:40;;;;;;;;;;;;;;;;;;5135048;27;1770;-42
2023/03/17 11:28:10;;;;;;;;;;;;;;;;;;5135193;27;1191;-43
2023/03/17 11:30:46;;;;;;;;;;;;;;;;;;5135106;27;1171;-43
2023/03/17 11:33:35;;;;;;;;;;;;;;;;;;5134841;27;1086;-44
2023/03/17 11:36:18;;;;;;;;;;;;;;;;;;5134876;27;968;-43
2023/03/17 11:38:55;;;;;;;;;;;;;;;;;;5134829;27;1010;-42
2023/03/17 11:41:35;;;;;;;;;;;;;;;;;;5135063;27;1443;-43
2023/03/17 11:44:15;;;;;;;;;;;;;;;;;;5134843;27;1089;-45
2023/03/17 11:46:48;;;;;;;;;;;;;;;;;;5134874;27;958;-42
2023/03/17 11:49:19;;;;;;;;;;;;;;;;;;5134700;27;1221;-43
2023/03/17 11:51:52;;;;;;;;;;;;;;;;;;5134633;27;1489;-43
2023/03/17 11:54:40;;;;;;;;;;;;;;;;;;5134641;27;1965;-42
2023/03/17 11:57:10;;;;;;;;;;;;;;;;;;5151015;27;1683;-42
2023/03/17 11:59:45;;;;;;;;;;;;;;;;;;5155380;27;1426;-42
2023/03/17 12:02:27;;;;;;;;;;;;;;;;;;5155129;27;1064;-42
2023/03/17 12:04:57;;;;;;;;;;;;;;;;;;5155271;27;1266;-41
2023/03/17 12:07:33;;;;;;;;;;;;;;;;;;5155081;27;914;-42
2023/03/17 12:10:03;;;;;;;;;;;;;;;;;;5155146;27;978;-43
2023/03/17 12:12:36;;;;;;;;;;;;;;;;;;5154750;27;1153;-42
2023/03/17 12:15:06;;;;;;;;;;;;;;;;;;5154777;27;1915;-42
2023/03/17 12:17:51;;;;;;;;;;;;;;;;;;5155033;27;1129;-41
2023/03/17 12:20:30;;;;;;;;;;;;;;;;;;5154898;27;1130;-42
2023/03/17 12:23:28;;;;;;;;;;;;;;;;;;5154912;27;963;-41
2023/03/17 12:25:58;;;;;;;;;;;;;;;;;;5151170;27;1713;-41
2023/03/17 12:28:27;;;;;;;;;;;;;;;;;;5154798;27;1195;-42
2023/03/17 12:31:11;;;;;;;;;;;;;;;;;;5154619;27;1186;-42
2023/03/17 12:33:57;;;;;;;;;;;;;;;;;;5154509;27;1202;-42
2023/03/17 12:36:25;;;;;;;;;;;;;;;;;;5154619;27;1080;-42
2023/03/17 12:38:53;;;;;;;;;;;;;;;;;;5154357;27;1079;-42
2023/03/17 12:41:39;;;;;;;;;;;;;;;;;;5154389;27;1149;-43
2023/03/17 12:44:16;;;;;;;;;;;;;;;;;;5154063;27;1078;-42
2023/03/17 12:46:49;;;;;;;;;;;;;;;;;;5154544;27;1423;-42
2023/03/17 12:49:26;;;;;;;;;;;;;;;;;;5154300;27;2140;-42
2023/03/17 12:51:56;;;;;;;;;;;;;;;;;;5154587;27;2067;-44
2023/03/17 12:54:26;;;;;;;;;;;;;;;;;;5154002;27;1898;-43
2023/03/17 12:56:59;;;;;;;;;;;;;;;;;;5138949;27;2031;-42
2023/03/17 12:59:26;;;;;;;;;;;;;;;;;;5133452;27;1952;-47
2023/03/17 13:01:57;;;;;;;;;;;;;;;;;;5133294;27;2017;-44
2023/03/17 13:04:27;;;;;;;;;;;;;;;;;;5133302;27;1600;-42
2023/03/17 13:07:13;;;;;;;;;;;;;;;;;;5133178;27;1810;-42
2023/03/17 13:09:46;;;;;;;;;;;;;;;;;;5133179;27;1636;-42
2023/03/17 13:12:32;;;;;;;;;;;;;;;;;;5133044;27;2147;-42
2023/03/17 13:14:59;;;;;;;;;;;;;;;;;;5132968;27;1963;-44
2023/03/17 13:17:27;;;;;;;;;;;;;;;;;;5132915;27;2171;-41
2023/03/17 13:19:56;;;;;;;;;;;;;;;;;;5132846;27;1812;-43
2023/03/17 13:22:31;;;;;;;;;;;;;;;;;;5132434;27;2039;-44
2023/03/17 13:25:11;;;;;;;;;;;;;;;;;;5131924;27;2004;-44
2023/03/17 13:27:39;;;;;;;;;;;;;;;;;;5132852;27;1892;-42
2023/03/17 13:30:25;;;;;;;;;;;;;;;;;;5132840;27;1874;-42
2023/03/17 13:33:01;;;;;;;;;;;;;;;;;;5132811;27;1605;-43
2023/03/17 13:35:37;;;;;;;;;;;;;;;;;;5132553;27;1906;-42
2023/03/17 13:38:28;;;;;;;;;;;;;;;;;;5132593;27;1665;-42
2023/03/17 13:41:05;;;;;;;;;;;;;;;;;;5132275;27;1713;-43
2023/03/17 13:43:32;;;;;;;;;;;;;;;;;;5132806;27;1830;-43
2023/03/17 13:46:38;;;;;;;;;;;;;;;;;;5132570;27;2110;-42
2023/03/17 13:49:25;;;;;;;;;;;;;;;;;;5069374;28;1870;-43
2023/03/17 13:52:13;;;;;;;;;;;;;;;;;;5069151;28;1703;-49
2023/03/17 13:54:41;;;;;;;;;;;;;;;;;;5117292;27;1920;-42
2023/03/17 13:57:29;;;;;;;;;;;;;;;;;;5127540;27;1671;-43
2023/03/17 14:00:00;;;;;;;;;;;;;;;;;;5114147;27;2005;-43
2023/03/17 14:02:32;;;;;;;;;;;;;;;;;;5132267;27;1935;-47
2023/03/17 14:05:01;;;;;;;;;;;;;;;;;;5132474;27;1958;-42
2023/03/17 14:07:31;;;;;;;;;;;;;;;;;;5132192;27;1435;-45
2023/03/17 14:10:00;;;;;;;;;;;;;;;;;;5132224;27;1524;-42
2023/03/17 14:12:32;;;;;;;;;;;;;;;;;;5131964;27;2082;-43
2023/03/17 14:15:03;;;;;;;;;;;;;;;;;;5132138;28;1974;-41
2023/03/17 14:17:38;;;;;;;;;;;;;;;;;;5132264;28;1787;-42
2023/03/17 14:20:26;;;;;;;;;;;;;;;;;;5132320;28;1921;-42
2023/03/17 14:22:55;;;;;;;;;;;;;;;;;;5113578;28;1848;-42
2023/03/17 14:25:23;;;;;;;;;;;;;;;;;;5114022;28;2198;-42
2023/03/17 14:27:52;;;;;;;;;;;;;;;;;;5132117;28;2086;-42
2023/03/17 14:30:27;;;;;;;;;;;;;;;;;;5131927;28;1752;-42
2023/03/17 14:32:59;;;;;;;;;;;;;;;;;;5132070;28;1830;-42
2023/03/17 14:35:34;;;;;;;;;;;;;;;;;;5134152;27;1995;-42
2023/03/17 14:38:03;;;;;;;;;;;;;;;;;;5136115;27;1366;-43
2023/03/17 14:40:35;;;;;;;;;;;;;;;;;;5135841;27;1894;-42
2023/03/17 14:43:03;;;;;;;;;;;;;;;;;;5117649;27;1719;-42
2023/03/17 14:45:49;;;;;;;;;;;;;;;;;;5135891;27;2194;-42
2023/03/17 14:48:19;;;;;;;;;;;;;;;;;;5136024;27;2011;-43
2023/03/17 14:50:49;;;;;;;;;;;;;;;;;;5135851;27;2256;-42
2023/03/17 14:53:19;;;;;;;;;;;;;;;;;;5135803;27;1801;-46
2023/03/17 14:55:47;;;;;;;;;;;;;;;;;;5135681;27;1928;-45
2023/03/17 14:58:24;;;;;;;;;;;;;;;;;;5135805;27;1563;-43
2023/03/17 15:01:01;;;;;;;;;;;;;;;;;;5135660;27;1882;-43
2023/03/17 15:03:30;;;;;;;;;;;;;;;;;;5117379;27;2130;-46
2023/03/17 15:06:20;;;;;;;;;;;;;;;;;;5135723;27;1856;-43
2023/03/17 15:08:47;;;;;;;;;;;;;;;;;;5135411;27;2128;-43
2023/03/17 15:11:16;;;;;;;;;;;;;;;;;;5135727;27;1685;-42
2023/03/17 15:13:44;;;;;;;;;;;;;;;;;;5135279;27;1955;-43
2023/03/17 15:16:16;;;;;;;;;;;;;;;;;;5135359;27;1971;-44
2023/03/17 15:18:44;;;;;;;;;;;;;;;;;;5135452;27;1849;-42
2023/03/17 15:21:22;;;;;;;;;;;;;;;;;;5135576;27;1917;-42
2023/03/17 15:23:49;;;;;;;;;;;;;;;;;;5135175;27;1398;-42
2023/03/17 15:26:21;;;;;;;;;;;;;;;;;;5135167;27;1968;-42
2023/03/17 15:28:48;;;;;;;;;;;;;;;;;;5135181;27;1837;-42
2023/03/17 15:31:15;;;;;;;;;;;;;;;;;;5135121;27;1828;-42
2023/03/17 15:33:43;;;;;;;;;;;;;;;;;;5135616;27;1913;-45
2023/03/17 15:36:16;;;;;;;;;;;;;;;;;;5135174;27;2154;-56
2023/03/17 15:38:58;;;;;;;;;;;;;;;;;;5134779;27;1761;-43
2023/03/17 15:41:25;;;;;;;;;;;;;;;;;;5135057;27;1845;-42
2023/03/17 15:43:52;;;;;;;;;;;;;;;;;;5135056;27;1846;-41
2023/03/17 15:46:22;;;;;;;;;;;;;;;;;;5134423;27;1928;-42
2023/03/17 15:48:50;;;;;;;;;;;;;;;;;;5134943;27;2395;-43
2023/03/17 15:51:17;;;;;;;;;;;;;;;;;;5134654;27;1659;-42
2023/03/17 15:53:46;;;;;;;;;;;;;;;;;;5134852;27;2295;-42
2023/03/17 15:56:20;;;;;;;;;;;;;;;;;;5134669;27;2141;-43
2023/03/17 15:58:50;;;;;;;;;;;;;;;;;;5134466;27;1981;-45
2023/03/17 16:01:18;;;;;;;;;;;;;;;;;;5134521;27;1793;-43
2023/03/17 16:03:46;;;;;;;;;;;;;;;;;;5146300;27;1786;-42
2023/03/17 16:06:18;;;;;;;;;;;;;;;;;;5155458;27;2077;-42
2023/03/17 16:08:45;;;;;;;;;;;;;;;;;;5155313;27;2052;-42
2023/03/17 16:11:18;;;;;;;;;;;;;;;;;;5155471;27;1911;-43
2023/03/17 16:13:46;;;;;;;;;;;;;;;;;;5155021;27;1630;-42
2023/03/17 16:16:15;;;;;;;;;;;;;;;;;;5155232;27;2171;-42
2023/03/17 16:18:45;;;;;;;;;;;;;;;;;;5155129;27;1587;-43
2023/03/17 16:21:13;;;;;;;;;;;;;;;;;;5155077;27;2143;-43
2023/03/17 16:23:40;;;;;;;;;;;;;;;;;;5155059;27;1617;-41
2023/03/17 16:26:08;;;;;;;;;;;;;;;;;;5154835;27;2126;-44
2023/03/17 16:28:43;;;;;;;;;;;;;;;;;;5155173;27;2182;-42
2023/03/17 16:31:16;;;;;;;;;;;;;;;;;;5155114;27;1706;-48
2023/03/17 16:33:44;;;;;;;;;;;;;;;;;;5154827;27;1965;-47
2023/03/17 16:36:15;;;;;;;;;;;;;;;;;;5154648;27;1883;-52
2023/03/17 16:38:43;;;;;;;;;;;;;;;;;;5154344;27;1946;-43
2023/03/17 16:41:26;;;;;;;;;;;;;;;;;;5154989;27;2067;-42
2023/03/17 16:44:01;;;;;;;;;;;;;;;;;;5154451;27;1900;-43
2023/03/17 16:46:31;;;;;;;;;;;;;;;;;;5154647;27;2101;-43
2023/03/17 16:49:01;;;;;;;;;;;;;;;;;;5154610;27;1855;-54
2023/03/17 16:51:29;;;;;;;;;;;;;;;;;;5154247;27;2218;-61
2023/03/17 16:53:56;;;;;;;;;;;;;;;;;;5154032;27;2082;-48
2023/03/17 16:56:24;;;;;;;;;;;;;;;;;;5143317;27;2267;-43
2023/03/17 16:58:51;;;;;;;;;;;;;;;;;;5132688;27;1641;-59
2023/03/17 17:01:20;;;;;;;;;;;;;;;;;;5133551;27;2203;-43
2023/03/17 17:03:48;;;;;;;;;;;;;;;;;;5133681;27;1488;-42
2023/03/17 17:06:17;;;;;;;;;;;;;;;;;;5133599;27;2053;-43
2023/03/17 17:08:45;;;;;;;;;;;;;;;;;;5133326;27;1487;-45
2023/03/17 17:11:13;;;;;;;;;;;;;;;;;;5132498;27;1834;-43
2023/03/17 17:13:41;;;;;;;;;;;;;;;;;;5133032;27;1943;-44
2023/03/17 17:16:25;;;;;;;;;;;;;;;;;;5133037;27;1978;-43
2023/03/17 17:18:53;;;;;;;;;;;;;;;;;;5133141;27;1799;-44
2023/03/17 17:21:20;;;;;;;;;;;;;;;;;;5114533;27;2203;-41
2023/03/17 17:23:47;;;;;;;;;;;;;;;;;;5133554;27;1852;-43
2023/03/17 17:26:17;;;;;;;;;;;;;;;;;;5133128;27;1498;-41
2023/03/17 17:28:44;;;;;;;;;;;;;;;;;;5132886;27;1908;-41
2023/03/17 17:31:11;;;;;;;;;;;;;;;;;;5133046;27;2244;-42